createdAt,value
2022-11-21T00:10:21.302Z,0.8
2022-11-21T00:22:21.850Z,0.8
2022-11-21T00:34:21.199Z,0.8
2022-11-21T00:46:21.194Z,0.8
2022-11-21T00:58:21.287Z,0.9
2022-11-21T01:10:21.293Z,0.9
2022-11-21T01:22:21.192Z,0.9
2022-11-21T01:34:21.308Z,0.9
2022-11-21T01:46:21.198Z,0.9
2022-11-21T01:58:21.262Z,0.7
2022-11-21T02:10:21.190Z,0.7
2022-11-21T02:22:21.195Z,1.3
2022-11-21T02:34:21.303Z,1.3
2022-11-21T02:46:21.198Z,1.3
2022-11-21T02:58:21.188Z,0.8
2022-11-21T03:10:21.280Z,0.8
2022-11-21T03:22:21.303Z,0.6
2022-11-21T03:34:21.271Z,0.6
2022-11-21T03:46:21.190Z,0.6
2022-11-21T03:58:21.306Z,0.6
2022-11-21T04:10:21.292Z,0.6
2022-11-21T04:22:21.276Z,0.8
2022-11-21T04:34:21.310Z,0.8
2022-11-21T04:46:21.193Z,0.8
2022-11-21T04:58:21.299Z,0.6
2022-11-21T05:10:21.277Z,0.6
2022-11-21T05:22:21.311Z,0.7
2022-11-21T05:34:21.205Z,0.7
2022-11-21T05:46:21.195Z,0.7
2022-11-21T05:58:21.275Z,0.6
2022-11-21T06:10:21.247Z,0.6
2022-11-21T06:22:21.287Z,0.6
2022-11-21T06:34:21.247Z,0.6
2022-11-21T06:46:21.189Z,0.6
2022-11-21T06:58:21.304Z,0.7
2022-11-21T07:10:21.209Z,0.7
2022-11-21T07:22:21.255Z,1.1
2022-11-21T07:34:21.298Z,1.1
2022-11-21T07:46:21.193Z,1.1
2022-11-21T07:58:21.289Z,1.0
2022-11-21T08:10:21.251Z,1.0
2022-11-21T08:22:21.192Z,0.9
2022-11-21T08:34:21.289Z,0.9
2022-11-21T08:46:21.199Z,0.9
2022-11-21T08:58:21.197Z,0.9
2022-11-21T09:10:21.301Z,0.9
2022-11-21T09:22:21.272Z,2.1
2022-11-21T09:34:21.217Z,2.1
2022-11-21T09:46:21.208Z,2.1
2022-11-21T09:58:21.267Z,2.0
2022-11-21T10:10:21.304Z,2.0
2022-11-21T10:22:21.200Z,2.2
2022-11-21T10:34:21.258Z,2.2
2022-11-21T10:46:21.363Z,2.2
2022-11-21T10:58:21.302Z,2.3
2022-11-21T11:10:26.958Z,2.3
2022-11-21T11:22:21.250Z,1.0
2022-11-21T11:34:21.224Z,1.0
2022-11-21T11:46:21.189Z,1.0
2022-11-21T11:58:21.195Z,0.7
2022-11-21T12:10:21.260Z,0.7
2022-11-21T12:22:21.314Z,1.1
2022-11-21T12:34:21.287Z,1.1
2022-11-21T12:46:21.194Z,1.1
2022-11-21T12:58:21.195Z,1.2
2022-11-21T13:10:21.314Z,1.2
2022-11-21T13:22:21.280Z,1.3
2022-11-21T13:34:21.398Z,1.3
2022-11-21T13:46:21.192Z,1.3
2022-11-21T13:58:21.282Z,0.6
2022-11-21T14:10:21.285Z,0.6
2022-11-21T14:22:21.200Z,1.8
2022-11-21T14:34:21.195Z,1.8
2022-11-21T14:46:21.195Z,1.8
2022-11-21T14:58:21.396Z,1.9
2022-11-21T15:10:30.183Z,1.9
2022-11-21T15:22:21.205Z,1.5
2022-11-21T15:34:35.399Z,1.5
2022-11-21T15:46:21.191Z,1.5
2022-11-21T15:58:21.192Z,1.5
2022-11-21T16:10:26.207Z,1.5
2022-11-21T16:22:21.191Z,1.9
2022-11-21T16:34:21.259Z,1.9
2022-11-21T16:46:21.201Z,1.9
2022-11-21T16:58:21.310Z,1.7
2022-11-21T17:10:21.194Z,1.7
2022-11-21T17:22:24.600Z,9.4
2022-11-21T17:34:22.498Z,9.4
2022-11-21T17:46:21.203Z,9.4
2022-11-21T17:58:21.310Z,8.8
2022-11-21T18:10:42.343Z,8.8
2022-11-21T18:22:26.293Z,8.5
2022-11-21T18:34:21.313Z,8.5
2022-11-21T18:46:21.254Z,8.5
2022-11-21T18:58:21.202Z,6.8
2022-11-21T19:10:41.966Z,6.8
2022-11-21T19:22:21.308Z,4.9
2022-11-21T19:34:21.211Z,4.9
2022-11-21T19:46:21.197Z,4.9
2022-11-21T19:58:21.296Z,4.1
2022-11-21T20:10:21.303Z,4.1
2022-11-21T20:22:21.194Z,3.6
2022-11-21T20:34:21.214Z,3.6
2022-11-21T20:46:21.444Z,3.6
2022-11-21T20:58:21.191Z,3.2
2022-11-21T21:10:21.293Z,3.2
2022-11-21T21:22:21.247Z,2.3
2022-11-21T21:34:21.312Z,2.3
2022-11-21T21:46:21.191Z,2.3
2022-11-21T21:58:21.204Z,1.9
2022-11-21T22:10:21.279Z,1.9
2022-11-21T22:22:21.196Z,1.8
2022-11-21T22:34:21.192Z,1.8
2022-11-21T22:46:21.206Z,1.8
2022-11-21T22:58:21.250Z,1.2
2022-11-21T23:10:21.360Z,1.2
2022-11-21T23:22:21.188Z,1.4
2022-11-21T23:34:21.201Z,1.4
2022-11-21T23:46:21.196Z,1.4
2022-11-21T23:58:21.310Z,1.4
